createdAt,value
2022-10-15T00:01:52.506Z,21.47
2022-10-15T00:03:55.433Z,22.04
2022-10-15T00:05:57.047Z,21.20
2022-10-15T00:07:58.673Z,21.89
2022-10-15T00:10:00.257Z,21.47
2022-10-15T00:12:01.910Z,22.99
2022-10-15T00:14:03.578Z,22.57
2022-10-15T00:16:08.887Z,22.99
2022-10-15T00:18:10.848Z,22.19
2022-10-15T00:20:13.027Z,22.69
2022-10-15T00:22:14.632Z,22.84
2022-10-15T00:24:16.233Z,22.09
2022-10-15T00:26:23.306Z,21.49
2022-10-15T00:28:24.899Z,22.28
2022-10-15T00:30:26.476Z,22.29
2022-10-15T00:32:28.083Z,21.88
2022-10-15T00:34:29.681Z,22.25
2022-10-15T00:36:36.230Z,21.71
2022-10-15T00:38:37.934Z,23.31
2022-10-15T00:40:41.220Z,23.05
2022-10-15T00:42:43.001Z,23.54
2022-10-15T00:45:12.107Z,22.66
2022-10-15T00:47:26.677Z,22.99
2022-10-15T00:49:41.001Z,21.90
2022-10-15T00:51:49.818Z,23.62
2022-10-15T00:53:52.252Z,22.61
2022-10-15T00:55:54.088Z,21.91
2022-10-15T00:57:58.685Z,22.01
2022-10-15T01:00:06.229Z,21.52
2022-10-15T01:02:08.257Z,22.56
2022-10-15T01:04:10.328Z,21.90
2022-10-15T01:06:11.890Z,22.25
2022-10-15T01:08:13.522Z,22.50
2022-10-15T01:10:15.982Z,22.03
2022-10-15T01:12:55.760Z,23.65
2022-10-15T01:15:11.848Z,22.27
2022-10-15T01:17:27.807Z,22.49
2022-10-15T01:19:38.446Z,22.00
2022-10-15T01:21:54.349Z,21.69
2022-10-15T01:24:14.584Z,22.37
2022-10-15T01:26:34.652Z,23.84
2022-10-15T01:28:39.003Z,23.90
2022-10-15T01:30:45.243Z,23.63
2022-10-15T01:33:03.181Z,22.82
2022-10-15T01:35:30.766Z,21.69
2022-10-15T01:37:53.396Z,22.91
2022-10-15T01:40:02.796Z,22.24
2022-10-15T01:42:10.733Z,23.53
2022-10-15T01:44:18.743Z,22.69
2022-10-15T01:46:47.580Z,22.92
2022-10-15T01:48:52.532Z,23.10
2022-10-15T01:50:58.167Z,22.89
2022-10-15T01:53:02.306Z,22.45
2022-10-15T01:55:07.555Z,22.30
2022-10-15T01:57:12.740Z,22.65
2022-10-15T01:59:14.523Z,21.76
2022-10-15T02:01:16.466Z,23.02
2022-10-15T02:03:18.238Z,22.69
2022-10-15T02:05:29.699Z,22.91
2022-10-15T02:07:53.642Z,21.88
2022-10-15T02:10:01.198Z,22.80
2022-10-15T02:12:05.682Z,23.64
2022-10-15T02:14:18.541Z,24.19
2022-10-15T02:16:30.389Z,24.24
2022-10-15T02:18:48.216Z,23.32
2022-10-15T02:20:59.692Z,23.57
2022-10-15T02:23:19.720Z,21.23
2022-10-15T02:25:24.660Z,22.83
2022-10-15T02:27:28.277Z,22.12
2022-10-15T02:29:34.778Z,23.31
2022-10-15T02:31:39.652Z,21.85
2022-10-15T02:33:42.437Z,22.52
2022-10-15T02:35:47.463Z,21.78
2022-10-15T02:37:52.485Z,21.28
2022-10-15T02:39:54.314Z,21.71
2022-10-15T02:41:57.554Z,22.44
2022-10-15T02:43:59.126Z,22.11
2022-10-15T02:46:00.732Z,23.46
2022-10-15T02:48:02.352Z,23.28
2022-10-15T02:50:04.457Z,23.27
2022-10-15T02:52:06.317Z,22.20
2022-10-15T02:54:08.403Z,22.11
2022-10-15T02:56:09.993Z,22.79
2022-10-15T02:58:11.599Z,20.76
2022-10-15T03:00:13.666Z,21.83
2022-10-15T03:02:18.427Z,23.27
2022-10-15T03:04:21.188Z,23.70
2022-10-15T03:06:22.755Z,23.30
2022-10-15T03:08:24.349Z,23.33
2022-10-15T03:10:26.173Z,23.24
2022-10-15T03:12:27.864Z,22.32
2022-10-15T03:14:32.041Z,22.32
2022-10-15T03:16:33.671Z,22.26
2022-10-15T03:18:38.279Z,22.99
2022-10-15T03:20:42.173Z,23.57
2022-10-15T03:22:43.800Z,22.83
2022-10-15T03:24:45.461Z,23.01
2022-10-15T03:26:47.221Z,22.40
2022-10-15T03:28:48.837Z,22.14
2022-10-15T03:30:50.536Z,22.87
2022-10-15T03:32:52.203Z,23.24
2022-10-15T03:34:53.799Z,23.88
2022-10-15T03:36:55.398Z,23.68
2022-10-15T03:38:57.043Z,21.82
2022-10-15T03:40:58.670Z,22.92
2022-10-15T03:43:01.172Z,24.24
2022-10-15T03:45:02.968Z,22.67
2022-10-15T03:47:04.628Z,23.76
2022-10-15T03:49:06.284Z,22.31
2022-10-15T03:51:08.045Z,23.56
2022-10-15T03:53:09.695Z,22.91
2022-10-15T03:55:12.041Z,22.73
2022-10-15T03:57:13.673Z,22.99
2022-10-15T03:59:16.373Z,23.25
2022-10-15T04:01:19.180Z,23.26
2022-10-15T04:03:20.838Z,23.06
2022-10-15T04:05:22.518Z,23.48
2022-10-15T04:07:24.242Z,23.74
2022-10-15T04:09:26.003Z,23.04
2022-10-15T04:11:27.650Z,23.07
2022-10-15T04:13:29.945Z,21.71
2022-10-15T04:15:31.514Z,22.67
2022-10-15T04:17:33.205Z,23.83
2022-10-15T04:19:34.835Z,23.46
2022-10-15T04:21:36.442Z,23.77
2022-10-15T04:23:38.343Z,23.67
2022-10-15T04:25:40.419Z,24.49
2022-10-15T04:27:42.001Z,24.43
2022-10-15T04:29:43.647Z,24.28
2022-10-15T04:31:45.364Z,24.08
2022-10-15T04:33:49.159Z,23.43
2022-10-15T04:36:06.545Z,24.16
2022-10-15T04:38:08.211Z,22.80
2022-10-15T04:40:10.644Z,23.82
2022-10-15T04:42:12.285Z,23.39
2022-10-15T04:44:13.968Z,23.80
2022-10-15T04:46:15.633Z,24.28
2022-10-15T04:48:17.229Z,24.26
2022-10-15T04:50:18.918Z,23.77
2022-10-15T04:52:20.527Z,23.58
2022-10-15T04:54:22.192Z,23.55
2022-10-15T04:56:24.023Z,23.73
2022-10-15T04:58:25.619Z,24.71
2022-10-15T05:00:27.316Z,23.73
2022-10-15T05:02:28.932Z,24.01
2022-10-15T05:04:30.584Z,24.08
2022-10-15T05:06:33.837Z,22.91
2022-10-15T05:08:36.881Z,23.33
2022-10-15T05:10:38.423Z,25.03
2022-10-15T05:12:40.118Z,24.25
2022-10-15T05:14:42.009Z,24.55
2022-10-15T05:16:43.794Z,23.11
2022-10-15T05:18:47.742Z,24.47
2022-10-15T05:20:49.401Z,24.19
2022-10-15T05:22:51.052Z,23.90
2022-10-15T05:24:52.749Z,23.54
2022-10-15T05:26:54.364Z,24.61
2022-10-15T05:28:58.153Z,23.77
2022-10-15T05:31:14.860Z,24.55
2022-10-15T05:33:20.891Z,23.09
2022-10-15T05:35:22.607Z,24.18
2022-10-15T05:37:24.396Z,23.55
2022-10-15T05:39:26.307Z,23.22
2022-10-15T05:41:29.020Z,23.97
2022-10-15T05:43:30.618Z,23.33
2022-10-15T05:45:32.231Z,23.26
2022-10-15T05:47:33.896Z,23.35
2022-10-15T05:49:35.456Z,23.22
2022-10-15T05:51:37.881Z,24.12
2022-10-15T05:53:40.658Z,22.47
2022-10-15T05:55:42.604Z,22.82
2022-10-15T05:57:44.233Z,22.82
2022-10-15T05:59:45.840Z,23.95
2022-10-15T06:01:47.488Z,23.33
2022-10-15T06:03:49.103Z,23.22
2022-10-15T06:05:51.138Z,23.87
2022-10-15T06:07:52.778Z,23.96
2022-10-15T06:09:54.360Z,24.70
2022-10-15T06:11:55.959Z,24.44
2022-10-15T06:13:57.515Z,24.14
2022-10-15T06:15:59.081Z,24.45
2022-10-15T06:18:01.250Z,24.19
2022-10-15T06:20:02.940Z,23.38
2022-10-15T06:22:04.539Z,23.58
2022-10-15T06:24:09.158Z,24.22
2022-10-15T06:26:12.088Z,24.73
2022-10-15T06:28:13.699Z,24.21
2022-10-15T06:30:15.399Z,23.74
2022-10-15T06:32:16.992Z,24.58
2022-10-15T06:34:18.548Z,24.23
2022-10-15T06:36:21.773Z,24.99
2022-10-15T06:38:24.999Z,24.16
2022-10-15T06:40:26.627Z,24.91
2022-10-15T06:42:28.284Z,25.02
2022-10-15T06:44:29.846Z,25.19
2022-10-15T06:46:31.467Z,24.85
2022-10-15T06:48:33.545Z,25.32
2022-10-15T06:50:37.299Z,25.14
2022-10-15T06:52:39.326Z,25.41
2022-10-15T06:54:40.974Z,24.96
2022-10-15T06:56:42.664Z,25.47
2022-10-15T06:58:44.317Z,25.34
2022-10-15T07:00:45.946Z,24.21
2022-10-15T07:02:47.530Z,23.67
2022-10-15T07:04:49.410Z,23.67
2022-10-15T07:06:51.055Z,23.78
2022-10-15T07:08:52.623Z,24.13
2022-10-15T07:10:54.240Z,23.38
2022-10-15T07:12:55.895Z,23.70
2022-10-15T07:14:57.551Z,22.29
2022-10-15T07:16:59.308Z,22.41
2022-10-15T07:19:00.941Z,22.95
2022-10-15T07:21:05.172Z,22.68
2022-10-15T07:23:06.793Z,23.21
2022-10-15T07:25:10.175Z,22.53
2022-10-15T07:27:18.701Z,23.06
2022-10-15T07:29:20.815Z,23.68
2022-10-15T07:31:23.190Z,22.60
2022-10-15T07:33:24.831Z,22.75
2022-10-15T07:35:27.655Z,23.48
2022-10-15T07:37:29.357Z,23.48
2022-10-15T07:39:30.997Z,22.54
2022-10-15T07:41:32.641Z,23.79
2022-10-15T07:43:35.515Z,22.53
2022-10-15T07:45:37.463Z,23.10
2022-10-15T07:47:40.625Z,23.19
2022-10-15T07:49:42.232Z,24.01
2022-10-15T07:51:43.864Z,24.30
2022-10-15T07:53:47.381Z,23.66
2022-10-15T07:55:48.952Z,22.68
2022-10-15T07:57:50.592Z,23.70
2022-10-15T07:59:52.293Z,23.57
2022-10-15T08:01:53.870Z,23.41
2022-10-15T08:03:55.524Z,23.50
2022-10-15T08:05:59.651Z,23.55
2022-10-15T08:08:01.321Z,23.93
2022-10-15T08:10:03.083Z,23.75
2022-10-15T08:12:06.935Z,23.26
2022-10-15T08:14:08.726Z,23.12
2022-10-15T08:16:12.752Z,22.72
2022-10-15T08:18:14.411Z,24.37
2022-10-15T08:20:16.048Z,22.02
2022-10-15T08:22:17.744Z,23.53
2022-10-15T08:24:19.492Z,23.32
2022-10-15T08:26:21.116Z,23.24
2022-10-15T08:28:22.742Z,23.76
2022-10-15T08:30:24.751Z,23.36
2022-10-15T08:32:26.580Z,23.29
2022-10-15T08:34:28.334Z,23.72
2022-10-15T08:36:29.987Z,22.99
2022-10-15T08:38:31.650Z,23.55
2022-10-15T08:40:33.392Z,23.66
2022-10-15T08:42:42.036Z,23.48
2022-10-15T08:44:50.083Z,22.81
2022-10-15T08:46:59.398Z,22.16
2022-10-15T08:49:02.767Z,21.28
2022-10-15T08:51:11.265Z,22.86
2022-10-15T08:53:16.136Z,23.91
2022-10-15T08:55:20.328Z,23.07
2022-10-15T08:57:40.048Z,23.49
2022-10-15T08:59:54.227Z,23.28
2022-10-15T09:02:03.245Z,23.48
2022-10-15T09:04:22.182Z,22.53
2022-10-15T09:06:29.395Z,23.34
2022-10-15T09:09:18.993Z,24.89
2022-10-15T09:11:30.608Z,24.00
2022-10-15T09:13:41.782Z,24.24
2022-10-15T09:15:57.277Z,24.60
2022-10-15T09:17:58.890Z,22.82
2022-10-15T09:20:05.178Z,23.90
2022-10-15T09:22:12.177Z,23.25
2022-10-15T09:24:20.863Z,24.81
2022-10-15T09:27:06.877Z,23.06
2022-10-15T09:29:35.584Z,24.36
2022-10-15T09:31:53.244Z,23.94
2022-10-15T09:33:58.784Z,22.86
2022-10-15T09:36:03.297Z,23.74
2022-10-15T09:38:48.129Z,24.78
2022-10-15T09:43:27.326Z,23.62
2022-10-15T09:45:28.901Z,23.95
2022-10-15T09:47:32.978Z,24.60
2022-10-15T09:49:36.502Z,23.19
2022-10-15T09:52:04.059Z,24.86
2022-10-15T09:54:19.144Z,25.77
2022-10-15T09:56:27.127Z,25.78
2022-10-15T09:58:37.655Z,24.37
2022-10-15T10:00:55.909Z,24.82
2022-10-15T10:03:07.368Z,23.82
2022-10-15T10:05:29.271Z,25.26
2022-10-15T10:07:37.030Z,24.40
2022-10-15T10:09:51.859Z,25.31
2022-10-15T10:11:59.761Z,25.57
2022-10-15T10:14:04.270Z,25.65
2022-10-15T10:16:09.989Z,24.80
2022-10-15T10:18:23.034Z,24.44
2022-10-15T10:20:27.225Z,24.14
2022-10-15T10:22:28.825Z,24.03
2022-10-15T10:24:34.310Z,24.30
2022-10-15T10:26:36.243Z,25.71
2022-10-15T10:28:44.581Z,25.92
2022-10-15T10:31:03.215Z,25.68
2022-10-15T10:33:05.837Z,24.41
2022-10-15T10:35:20.500Z,23.47
2022-10-15T10:37:23.488Z,24.17
2022-10-15T10:39:31.088Z,23.28
2022-10-15T10:41:51.337Z,24.77
2022-10-15T10:43:55.447Z,25.31
2022-10-15T10:46:02.399Z,25.21
2022-10-15T10:48:40.616Z,23.68
2022-10-15T10:50:42.252Z,24.21
2022-10-15T10:52:44.356Z,23.97
2022-10-15T10:54:46.873Z,23.23
2022-10-15T10:56:48.929Z,23.34
2022-10-15T10:59:00.171Z,24.46
2022-10-15T11:03:36.571Z,21.36
2022-10-15T11:05:40.692Z,21.69
2022-10-15T11:08:05.527Z,21.86
2022-10-15T11:10:25.754Z,22.19
2022-10-15T11:12:48.657Z,22.14
2022-10-15T11:15:06.410Z,22.96
2022-10-15T11:17:15.621Z,23.36
2022-10-15T11:20:06.212Z,22.45
2022-10-15T11:22:29.430Z,22.79
2022-10-15T11:24:49.015Z,23.29
2022-10-15T11:27:21.715Z,22.90
2022-10-15T11:29:38.834Z,22.29
2022-10-15T11:32:02.416Z,22.41
2022-10-15T11:34:20.880Z,23.20
2022-10-15T11:37:06.140Z,22.20
2022-10-15T11:39:26.211Z,23.08
2022-10-15T11:41:45.012Z,23.44
2022-10-15T11:44:33.380Z,23.70
2022-10-15T11:47:07.104Z,22.31
2022-10-15T11:49:38.800Z,21.36
2022-10-15T11:51:50.018Z,22.72
2022-10-15T11:54:04.833Z,23.06
2022-10-15T11:56:19.989Z,23.74
2022-10-15T11:59:03.018Z,23.73
2022-10-15T12:01:18.591Z,22.59
2022-10-15T12:03:25.598Z,22.96
2022-10-15T12:05:35.091Z,22.72
2022-10-15T12:07:43.969Z,21.98
2022-10-15T12:09:52.365Z,21.67
2022-10-15T12:12:18.147Z,22.93
2022-10-15T12:14:44.501Z,22.66
2022-10-15T12:16:57.424Z,23.54
2022-10-15T12:19:22.382Z,23.34
2022-10-15T12:21:35.990Z,22.20
2022-10-15T12:23:37.473Z,22.20
2022-10-15T12:25:43.585Z,22.58
2022-10-15T12:27:45.153Z,23.09
2022-10-15T12:29:50.959Z,21.76
2022-10-15T12:31:56.394Z,23.13
2022-10-15T12:34:08.088Z,23.35
2022-10-15T12:36:30.563Z,23.24
2022-10-15T12:38:39.043Z,23.49
2022-10-15T12:40:41.407Z,21.95
2022-10-15T12:42:43.308Z,21.68
2022-10-15T12:44:49.006Z,21.85
2022-10-15T12:46:50.768Z,22.44
2022-10-15T12:48:56.215Z,22.03
2022-10-15T12:51:16.488Z,23.19
2022-10-15T12:53:28.713Z,22.28
2022-10-15T12:55:39.255Z,23.01
2022-10-15T12:57:40.718Z,23.24
2022-10-15T12:59:44.910Z,22.06
2022-10-15T13:01:46.420Z,22.40
2022-10-15T13:03:50.828Z,23.18
2022-10-15T13:05:54.430Z,22.67
2022-10-15T13:07:58.502Z,23.19
2022-10-15T13:10:00.597Z,22.36
2022-10-15T13:12:02.509Z,22.63
2022-10-15T13:14:27.020Z,22.73
2022-10-15T13:16:30.096Z,23.07
2022-10-15T13:18:31.870Z,22.80
2022-10-15T13:20:39.004Z,22.71
2022-10-15T13:22:40.550Z,22.41
2022-10-15T13:24:45.618Z,22.57
2022-10-15T13:26:47.679Z,23.55
2022-10-15T13:28:51.278Z,24.64
2022-10-15T13:30:53.612Z,24.39
2022-10-15T13:32:56.605Z,23.64
2022-10-15T13:35:00.005Z,23.29
2022-10-15T13:37:03.704Z,23.11
2022-10-15T13:39:23.769Z,23.46
2022-10-15T13:41:28.816Z,23.83
2022-10-15T13:43:30.394Z,25.26
2022-10-15T13:45:33.130Z,24.66
2022-10-15T13:47:41.140Z,23.49
2022-10-15T13:49:42.716Z,24.33
2022-10-15T13:51:47.729Z,24.75
2022-10-15T13:53:49.323Z,25.68
2022-10-15T13:55:53.977Z,23.49
2022-10-15T13:58:02.188Z,24.69
2022-10-15T14:00:04.989Z,23.79
2022-10-15T14:02:11.920Z,23.28
2022-10-15T14:04:19.447Z,23.89
2022-10-15T14:06:27.155Z,24.98
2022-10-15T14:08:34.874Z,24.19
2022-10-15T14:10:36.850Z,22.91
2022-10-15T14:12:38.427Z,25.34
2022-10-15T14:14:46.860Z,24.26
2022-10-15T14:16:48.638Z,23.32
2022-10-15T14:19:07.374Z,23.99
2022-10-15T14:21:18.361Z,24.36
2022-10-15T14:23:23.627Z,24.18
2022-10-15T14:25:26.646Z,24.21
2022-10-15T14:27:29.422Z,23.51
2022-10-15T14:29:54.580Z,24.39
2022-10-15T14:31:56.315Z,23.92
2022-10-15T14:33:57.939Z,24.82
2022-10-15T14:36:11.032Z,25.12
2022-10-15T14:38:12.820Z,25.72
2022-10-15T14:40:18.026Z,24.15
2022-10-15T14:42:32.533Z,24.17
2022-10-15T14:44:48.141Z,23.54
2022-10-15T14:46:53.471Z,23.84
2022-10-15T14:48:55.035Z,23.67
2022-10-15T14:51:00.842Z,24.28
2022-10-15T14:53:15.763Z,23.46
2022-10-15T14:55:25.988Z,23.67
2022-10-15T14:57:35.822Z,24.02
2022-10-15T14:59:37.837Z,23.54
2022-10-15T15:01:39.697Z,23.22
2022-10-15T15:03:43.399Z,23.05
2022-10-15T15:05:56.955Z,23.91
2022-10-15T15:08:00.114Z,23.95
2022-10-15T15:10:06.799Z,23.57
2022-10-15T15:12:18.243Z,22.98
2022-10-15T15:14:28.038Z,23.53
2022-10-15T15:16:29.589Z,23.34
2022-10-15T15:18:31.215Z,24.09
2022-10-15T15:20:32.834Z,23.93
2022-10-15T15:22:36.513Z,24.52
2022-10-15T15:24:38.223Z,23.50
2022-10-15T15:26:39.785Z,24.66
2022-10-15T15:28:41.343Z,23.46
2022-10-15T15:30:44.572Z,23.87
2022-10-15T15:32:48.050Z,24.52
2022-10-15T15:34:51.472Z,23.87
2022-10-15T15:36:53.621Z,24.89
2022-10-15T15:38:58.731Z,24.63
2022-10-15T15:41:12.514Z,24.45
2022-10-15T15:43:17.155Z,23.91
2022-10-15T15:45:26.600Z,23.94
2022-10-15T15:47:31.210Z,23.62
2022-10-15T15:49:36.972Z,25.24
2022-10-15T15:51:41.164Z,24.80
2022-10-15T15:53:42.692Z,25.57
2022-10-15T15:55:44.475Z,24.77
2022-10-15T15:57:46.295Z,23.73
2022-10-15T15:59:47.848Z,24.26
2022-10-15T16:01:49.603Z,25.62
2022-10-15T16:03:51.154Z,24.54
2022-10-15T16:05:52.844Z,24.89
2022-10-15T16:07:54.463Z,23.72
2022-10-15T16:09:56.103Z,25.35
2022-10-15T16:11:57.671Z,25.22
2022-10-15T16:13:59.238Z,24.61
2022-10-15T16:16:00.786Z,25.23
2022-10-15T16:18:02.394Z,24.29
2022-10-15T16:20:05.448Z,24.41
2022-10-15T16:22:07.203Z,23.39
2022-10-15T16:24:08.804Z,24.84
2022-10-15T16:26:10.320Z,23.43
2022-10-15T16:28:11.867Z,24.05
2022-10-15T16:30:13.421Z,24.58
2022-10-15T16:32:15.157Z,24.78
2022-10-15T16:34:16.764Z,25.41
2022-10-15T16:36:18.641Z,24.51
2022-10-15T16:38:20.175Z,25.28
2022-10-15T16:40:22.482Z,24.73
2022-10-15T16:42:24.189Z,23.74
2022-10-15T16:44:25.755Z,24.75
2022-10-15T16:46:27.411Z,25.91
2022-10-15T16:48:30.463Z,25.27
2022-10-15T16:50:32.248Z,23.70
2022-10-15T16:52:34.933Z,25.59
2022-10-15T16:54:36.651Z,25.76
2022-10-15T16:56:38.280Z,24.63
2022-10-15T16:58:40.427Z,25.17
2022-10-15T17:00:41.970Z,25.44
2022-10-15T17:02:43.479Z,23.61
2022-10-15T17:04:46.624Z,25.20
2022-10-15T17:06:48.270Z,23.78
2022-10-15T17:09:03.949Z,23.75
2022-10-15T17:11:09.205Z,24.74
2022-10-15T17:13:11.214Z,24.59
2022-10-15T17:15:12.812Z,25.40
2022-10-15T17:17:14.382Z,23.54
2022-10-15T17:19:19.179Z,24.91
2022-10-15T17:21:27.250Z,24.51
2022-10-15T17:23:30.015Z,25.03
2022-10-15T17:25:31.618Z,24.82
2022-10-15T17:27:35.751Z,25.84
2022-10-15T17:29:37.389Z,24.82
2022-10-15T17:31:39.378Z,24.81
2022-10-15T17:33:43.047Z,25.32
2022-10-15T17:35:44.698Z,24.34
2022-10-15T17:37:47.223Z,25.68
2022-10-15T17:39:48.930Z,26.30
2022-10-15T17:41:52.058Z,25.27
2022-10-15T17:43:54.559Z,26.20
2022-10-15T17:46:04.194Z,25.46
2022-10-15T17:48:06.083Z,24.47
2022-10-15T17:50:08.130Z,26.74
2022-10-15T17:52:10.234Z,26.71
2022-10-15T17:54:11.917Z,25.58
2022-10-15T17:56:17.075Z,26.18
2022-10-15T17:58:20.203Z,24.44
2022-10-15T18:00:22.143Z,24.65
2022-10-15T18:02:24.836Z,23.98
2022-10-15T18:04:30.471Z,23.68
2022-10-15T18:06:33.052Z,24.44
2022-10-15T18:08:34.701Z,24.57
2022-10-15T18:10:39.136Z,25.93
2022-10-15T18:12:41.138Z,23.04
2022-10-15T18:14:42.850Z,23.42
2022-10-15T18:16:44.547Z,23.95
2022-10-15T18:18:46.241Z,23.09
2022-10-15T18:20:47.985Z,23.98
2022-10-15T18:22:50.661Z,25.52
2022-10-15T18:24:52.267Z,25.37
2022-10-15T18:26:54.091Z,24.55
2022-10-15T18:28:55.893Z,24.18
2022-10-15T18:30:57.585Z,25.83
2022-10-15T18:32:59.163Z,24.05
2022-10-15T18:35:00.783Z,24.38
2022-10-15T18:37:02.412Z,25.79
2022-10-15T18:39:04.067Z,25.35
2022-10-15T18:41:22.493Z,25.61
2022-10-15T18:43:24.455Z,23.55
2022-10-15T18:45:26.215Z,25.10
2022-10-15T18:47:27.770Z,24.29
2022-10-15T18:49:29.402Z,24.81
2022-10-15T18:51:32.188Z,23.51
2022-10-15T18:53:34.372Z,25.06
2022-10-15T18:55:36.369Z,23.36
2022-10-15T18:57:39.235Z,25.33
2022-10-15T18:59:41.002Z,25.93
2022-10-15T19:01:44.040Z,25.57
2022-10-15T19:03:49.852Z,26.31
2022-10-15T19:05:51.490Z,24.19
2022-10-15T19:07:55.600Z,25.67
2022-10-15T19:09:57.200Z,25.26
2022-10-15T19:11:58.895Z,25.58
2022-10-15T19:14:01.565Z,26.19
2022-10-15T19:16:04.857Z,24.87
2022-10-15T19:18:11.259Z,26.06
2022-10-15T19:20:13.325Z,24.67
2022-10-15T19:22:14.899Z,24.45
2022-10-15T19:24:18.372Z,24.88
2022-10-15T19:26:20.216Z,25.62
2022-10-15T19:28:21.838Z,25.03
2022-10-15T19:30:23.438Z,24.62
2022-10-15T19:32:25.102Z,24.69
2022-10-15T19:34:27.387Z,26.97
2022-10-15T19:36:32.522Z,24.34
2022-10-15T19:38:34.173Z,25.56
2022-10-15T19:40:39.739Z,24.02
2022-10-15T19:42:41.359Z,26.09
2022-10-15T19:44:43.080Z,25.30
2022-10-15T19:46:46.723Z,23.97
2022-10-15T19:48:48.706Z,24.15
2022-10-15T19:50:50.313Z,24.44
2022-10-15T19:52:51.900Z,23.68
2022-10-15T19:54:53.512Z,24.20
2022-10-15T19:56:55.114Z,23.51
2022-10-15T19:58:58.862Z,23.90
2022-10-15T20:01:01.027Z,25.16
2022-10-15T20:03:02.753Z,24.91
2022-10-15T20:05:04.758Z,24.63
2022-10-15T20:07:06.405Z,24.97
2022-10-15T20:09:09.023Z,24.12
2022-10-15T20:11:11.019Z,24.24
2022-10-15T20:13:14.580Z,24.50
2022-10-15T20:15:16.277Z,25.56
2022-10-15T20:17:17.880Z,26.32
2022-10-15T20:19:21.464Z,24.71
2022-10-15T20:21:23.253Z,24.15
2022-10-15T20:23:26.490Z,25.21
2022-10-15T20:25:28.118Z,25.27
2022-10-15T20:27:29.726Z,24.28
2022-10-15T20:29:31.328Z,25.36
2022-10-15T20:31:35.010Z,25.63
2022-10-15T20:33:37.172Z,25.63
2022-10-15T20:35:40.232Z,27.00
2022-10-15T20:37:42.254Z,27.34
2022-10-15T20:39:45.045Z,27.75
2022-10-15T20:41:46.964Z,27.44
2022-10-15T20:43:54.265Z,27.51
2022-10-15T20:45:56.248Z,26.37
2022-10-15T20:47:58.295Z,27.61
2022-10-15T20:50:00.660Z,27.78
2022-10-15T20:52:04.661Z,24.76
2022-10-15T20:54:06.615Z,25.08
2022-10-15T20:56:08.520Z,25.13
2022-10-15T20:58:10.211Z,24.43
2022-10-15T21:00:12.640Z,25.66
2022-10-15T21:02:14.344Z,25.03
2022-10-15T21:04:15.994Z,26.30
2022-10-15T21:06:18.001Z,26.11
2022-10-15T21:08:19.710Z,23.97
2022-10-15T21:10:21.320Z,26.18
2022-10-15T21:12:23.023Z,24.99
2022-10-15T21:14:25.058Z,24.24
2022-10-15T21:16:28.400Z,23.04
2022-10-15T21:18:30.314Z,25.28
2022-10-15T21:20:31.978Z,25.64
2022-10-15T21:22:33.615Z,24.26
2022-10-15T21:24:35.764Z,24.49
2022-10-15T21:26:37.351Z,26.03
2022-10-15T21:28:39.998Z,26.01
2022-10-15T21:30:41.643Z,25.36
2022-10-15T21:32:43.263Z,25.20
2022-10-15T21:34:44.930Z,25.83
2022-10-15T21:36:46.791Z,24.61
2022-10-15T21:38:51.832Z,23.29
2022-10-15T21:40:53.397Z,24.93
2022-10-15T21:42:55.005Z,23.42
2022-10-15T21:44:56.655Z,23.81
2022-10-15T21:46:58.237Z,25.90
2022-10-15T21:49:01.128Z,24.24
2022-10-15T21:51:10.218Z,24.49
2022-10-15T21:53:11.800Z,25.18
2022-10-15T21:55:13.492Z,25.32
2022-10-15T21:57:15.140Z,25.16
2022-10-15T21:59:16.793Z,25.81
2022-10-15T22:01:24.201Z,25.04
2022-10-15T22:03:25.858Z,25.03
2022-10-15T22:05:27.465Z,24.68
2022-10-15T22:07:29.075Z,24.50
2022-10-15T22:09:30.796Z,26.38
2022-10-15T22:11:35.741Z,26.53
2022-10-15T22:13:37.426Z,26.03
2022-10-15T22:15:39.069Z,23.07
2022-10-15T22:17:40.688Z,24.46
2022-10-15T22:19:42.305Z,23.85
2022-10-15T22:21:44.621Z,23.89
2022-10-15T22:23:53.452Z,25.40
2022-10-15T22:25:59.055Z,25.64
2022-10-15T22:28:00.652Z,26.18
2022-10-15T22:30:03.675Z,27.25
2022-10-15T22:32:05.404Z,26.02
2022-10-15T22:34:07.015Z,26.64
2022-10-15T22:36:15.529Z,25.37
2022-10-15T22:38:17.118Z,25.00
2022-10-15T22:40:18.715Z,25.91
2022-10-15T22:42:20.393Z,24.73
2022-10-15T22:44:22.024Z,25.15
2022-10-15T22:46:24.516Z,24.80
2022-10-15T22:48:26.597Z,23.73
2022-10-15T22:50:28.166Z,24.76
2022-10-15T22:52:30.056Z,24.88
2022-10-15T22:54:31.685Z,25.33
2022-10-15T22:56:33.650Z,25.39
2022-10-15T22:58:35.655Z,25.92
2022-10-15T23:00:37.303Z,25.41
2022-10-15T23:02:38.909Z,26.88
2022-10-15T23:04:40.531Z,26.41
2022-10-15T23:06:42.526Z,24.72
2022-10-15T23:08:45.457Z,23.96
2022-10-15T23:10:47.359Z,25.03
2022-10-15T23:12:48.910Z,25.67
2022-10-15T23:14:50.521Z,25.11
2022-10-15T23:16:52.113Z,26.07
2022-10-15T23:18:56.089Z,26.19
2022-10-15T23:20:57.656Z,27.40
2022-10-15T23:22:59.205Z,26.75
2022-10-15T23:25:02.320Z,27.20
2022-10-15T23:27:03.925Z,27.21
2022-10-15T23:29:07.423Z,26.74
2022-10-15T23:31:16.722Z,27.01
2022-10-15T23:33:18.303Z,27.30
2022-10-15T23:35:19.834Z,24.46
2022-10-15T23:37:21.355Z,25.70
2022-10-15T23:39:25.961Z,24.28
2022-10-15T23:41:29.273Z,24.33
2022-10-15T23:43:31.348Z,26.00
2022-10-15T23:45:34.811Z,26.55
2022-10-15T23:47:38.407Z,26.88
2022-10-15T23:49:39.905Z,27.71
2022-10-15T23:51:41.724Z,28.04
2022-10-15T23:55:51.031Z,27.53
2022-10-15T23:57:52.600Z,27.93
2022-10-15T23:59:54.106Z,27.50
